La Palma > ESTACION METEOROLÓGICA Puerto de Tazacorte

DATOS ACTUALES Online

Ultima actulizacion 18 minutos

21.2 ºC

Temperatura

68

Humedad (%)

1018.4

Presión (mb)

0

Precipitación (mm)

4.68 W

Viento (Km/h)

DATOS DIARIOS

Temperatura últimas 24 horas (ºC)

Humedad últimas 24 horas (%)

Presión atmosférica últimas 24 horas (mb)

Precipitaciones últimas 23 horas (mm)

Viento últimas 24 horas (Km/h)

Hora Temperatura (°C) ºC Precipitación (mm) mm Presión (mb) mb Humedad (%) % Viento (Km/h) km/h
28 - 23:00 20.7 0 1019 64 4.68 NE
29 - 00:00 19.9 0 1019 67 3.06 E
29 - 01:00 19.6 0 1019 67 4.68 NE
29 - 02:00 19.2 0 1018 68 6.3 NE
29 - 03:00 19.2 0 1018 69 4.68 E
29 - 04:00 19 0 1018 70 3.06 NE
29 - 05:00 19.7 0 1018 69 1.62 NE
29 - 06:00 20.1 0 1018 69 0 NE
29 - 07:00 20.4 0 1018 70 1.62 SW
29 - 08:00 20.7 0 1018 70 3.06 SW
29 - 09:00 20.9 0 1019 70 6.3 SW
29 - 10:00 21.2 0 1019 67 1.62 SW
29 - 11:00 21.9 0 1019 64 9.36 W
29 - 12:00 22.6 0 1019 61 4.68 NW
29 - 13:00 23.1 0 1019 59 3.06 W
29 - 14:00 22.7 0 1019 64 12.6 W
29 - 15:00 22.9 0 1018 64 14.04 NW
29 - 16:00 22.3 0 1018 69 12.6 W
29 - 17:00 22.2 0 1018 66 7.74 SW
29 - 18:00 22.3 0 1018 69 12.6 W
29 - 19:00 21.9 0 1018 70 6.3 W
29 - 20:00 21.4 0 1018 69 6.3 SW
29 - 21:00 21.4 0 1018 63 7.74 SW
29 - 22:00 21.3 0 1018 61 6.3 NW
29 - 23:00 21.2 0 1018 68 4.68 W
Apalmet utiliza cookies propias y de terceros para mejorar la usabilidad y la experiencia web. Política de cookies.